createdAt,value
2019-06-10T00:00:12.699Z,989.98
2019-06-10T00:01:06.986Z,989.95
2019-06-10T00:02:05.856Z,989.93
2019-06-10T00:03:05.683Z,989.88
2019-06-10T00:04:08.432Z,989.90
2019-06-10T00:05:06.004Z,989.95
2019-06-10T00:06:05.673Z,989.86
2019-06-10T00:07:05.840Z,989.87
2019-06-10T00:08:05.818Z,989.80
2019-06-10T00:09:07.998Z,989.78
2019-06-10T00:10:06.154Z,989.79
2019-06-10T00:11:07.447Z,989.83
2019-06-10T00:12:06.434Z,989.82
2019-06-10T00:13:07.334Z,989.83
2019-06-10T00:14:07.286Z,989.86
2019-06-10T00:15:06.531Z,989.87
2019-06-10T00:16:07.849Z,989.85
2019-06-10T00:17:07.919Z,989.82
2019-06-10T00:18:24.605Z,989.80
2019-06-10T00:19:09.291Z,989.81
2019-06-10T00:20:08.211Z,989.77
2019-06-10T00:21:08.221Z,989.79
2019-06-10T00:22:08.419Z,989.80
2019-06-10T00:23:08.297Z,989.80
2019-06-10T00:24:08.533Z,989.80
2019-06-10T00:25:08.547Z,989.75
2019-06-10T00:26:08.913Z,989.75
2019-06-10T00:27:09.352Z,989.74
2019-06-10T00:28:08.969Z,989.74
2019-06-10T00:29:09.684Z,989.73
2019-06-10T00:30:09.462Z,989.75
2019-06-10T00:31:08.663Z,989.76
2019-06-10T00:32:10.361Z,989.78
2019-06-10T00:33:09.973Z,989.75
2019-06-10T00:34:09.970Z,989.73
2019-06-10T00:35:10.099Z,989.76
2019-06-10T00:36:13.138Z,989.74
2019-06-10T00:37:14.302Z,989.74
2019-06-10T00:38:11.274Z,989.76
2019-06-10T00:39:13.096Z,989.79
2019-06-10T00:40:13.687Z,989.79
2019-06-10T00:41:13.663Z,989.82
2019-06-10T00:42:14.555Z,989.84
2019-06-10T00:43:13.236Z,989.84
2019-06-10T00:44:12.291Z,989.83
2019-06-10T00:45:17.453Z,989.86
2019-06-10T00:46:13.058Z,989.86
2019-06-10T00:47:14.709Z,989.85
2019-06-10T00:48:21.454Z,989.87
2019-06-10T00:49:14.382Z,989.86
2019-06-10T00:50:14.550Z,989.90
2019-06-10T00:51:12.895Z,989.87
2019-06-10T00:52:13.543Z,989.91
2019-06-10T00:53:14.226Z,989.87
2019-06-10T00:54:15.281Z,989.85
2019-06-10T00:55:12.530Z,989.87
2019-06-10T00:56:14.005Z,989.88
2019-06-10T00:57:12.452Z,989.87
2019-06-10T00:58:13.906Z,989.85
2019-06-10T00:59:13.386Z,989.88
2019-06-10T01:00:24.485Z,989.85
2019-06-10T01:01:14.426Z,989.81
2019-06-10T01:02:14.304Z,989.79
2019-06-10T01:03:15.107Z,989.79
2019-06-10T01:04:16.184Z,989.77
2019-06-10T01:05:15.301Z,989.80
2019-06-10T01:06:15.086Z,989.76
2019-06-10T01:07:14.757Z,989.76
2019-06-10T01:08:15.549Z,989.76
2019-06-10T01:09:14.908Z,989.75
2019-06-10T01:10:14.578Z,989.73
2019-06-10T01:11:21.266Z,989.74
2019-06-10T01:12:15.021Z,989.70
2019-06-10T01:13:15.476Z,989.71
2019-06-10T01:14:15.439Z,989.68
2019-06-10T01:15:15.294Z,989.67
2019-06-10T01:16:15.535Z,989.66
2019-06-10T01:17:15.509Z,989.60
2019-06-10T01:18:31.981Z,989.60
2019-06-10T01:19:15.813Z,989.55
2019-06-10T01:20:16.044Z,989.48
2019-06-10T01:21:15.566Z,989.46
2019-06-10T01:22:15.931Z,989.39
2019-06-10T01:23:15.722Z,989.33
2019-06-10T01:24:15.303Z,989.31
2019-06-10T01:25:15.434Z,989.32
2019-06-10T01:26:16.407Z,989.30
2019-06-10T01:27:15.699Z,989.26
2019-06-10T01:28:16.944Z,989.26
2019-06-10T01:29:15.961Z,989.30
2019-06-10T01:30:21.624Z,989.28
2019-06-10T01:31:20.648Z,989.26
2019-06-10T01:32:17.617Z,989.21
2019-06-10T01:33:17.630Z,989.17
2019-06-10T01:34:16.625Z,989.11
2019-06-10T01:35:17.488Z,989.13
2019-06-10T01:36:18.102Z,989.10
2019-06-10T01:37:17.625Z,989.09
2019-06-10T01:38:18.292Z,989.12
2019-06-10T01:39:18.056Z,989.09
2019-06-10T01:40:17.990Z,989.19
2019-06-10T01:41:17.547Z,989.18
2019-06-10T01:42:17.674Z,989.21
2019-06-10T01:43:18.457Z,989.18
2019-06-10T01:44:17.943Z,989.17
2019-06-10T01:45:18.085Z,989.18
2019-06-10T01:46:18.205Z,989.17
2019-06-10T01:47:18.340Z,989.13
2019-06-10T01:48:20.796Z,989.10
2019-06-10T01:49:18.615Z,989.07
2019-06-10T01:50:19.655Z,989.04
2019-06-10T01:51:21.116Z,989.08
2019-06-10T01:52:21.055Z,989.06
2019-06-10T01:53:21.392Z,989.10
2019-06-10T01:54:21.286Z,989.13
2019-06-10T01:55:21.653Z,989.16
2019-06-10T01:56:21.380Z,989.18
2019-06-10T01:57:21.968Z,989.20
2019-06-10T01:58:23.344Z,989.20
2019-06-10T01:59:22.114Z,989.18
2019-06-10T02:00:25.676Z,989.14
2019-06-10T02:01:23.302Z,989.10
2019-06-10T02:02:23.463Z,989.08
2019-06-10T02:03:23.705Z,989.02
2019-06-10T02:04:22.227Z,989.02
2019-06-10T02:05:22.859Z,989.05
2019-06-10T02:06:25.422Z,989.05
2019-06-10T02:07:23.088Z,989.06
2019-06-10T02:08:22.263Z,989.03
2019-06-10T02:09:23.181Z,989.01
2019-06-10T02:10:23.028Z,988.99
2019-06-10T02:11:23.418Z,988.99
2019-06-10T02:12:24.232Z,988.91
2019-06-10T02:13:22.087Z,988.93
2019-06-10T02:14:24.200Z,988.90
2019-06-10T02:15:22.761Z,988.82
2019-06-10T02:16:24.022Z,988.84
2019-06-10T02:17:23.945Z,988.79
2019-06-10T02:18:22.543Z,988.77
2019-06-10T02:19:23.051Z,988.79
2019-06-10T02:20:23.855Z,988.80
2019-06-10T02:21:24.487Z,988.74
2019-06-10T02:22:24.241Z,988.75
2019-06-10T02:23:23.320Z,988.74
2019-06-10T02:24:23.638Z,988.76
2019-06-10T02:25:23.404Z,988.82
2019-06-10T02:26:23.738Z,988.87
2019-06-10T02:27:23.679Z,988.87
2019-06-10T02:28:23.810Z,988.93
2019-06-10T02:29:23.948Z,988.90
2019-06-10T02:30:38.892Z,988.89
2019-06-10T02:31:30.482Z,988.87
2019-06-10T02:32:31.607Z,988.87
2019-06-10T02:33:30.908Z,988.86
2019-06-10T02:34:27.399Z,988.86
2019-06-10T02:35:37.548Z,988.87
2019-06-10T02:36:31.312Z,988.86
2019-06-10T02:37:31.892Z,988.88
2019-06-10T02:38:34.014Z,988.87
2019-06-10T02:39:33.434Z,988.89
2019-06-10T02:40:31.727Z,988.88
2019-06-10T02:41:31.848Z,988.93
2019-06-10T02:42:30.321Z,988.95
2019-06-10T02:43:31.913Z,988.95
2019-06-10T02:44:32.460Z,988.99
2019-06-10T02:45:32.411Z,988.95
2019-06-10T02:46:31.219Z,988.97
2019-06-10T02:47:32.083Z,988.91
2019-06-10T02:48:30.270Z,988.90
2019-06-10T02:49:46.232Z,988.84
2019-06-10T02:50:32.493Z,988.82
2019-06-10T02:51:30.837Z,988.79
2019-06-10T02:52:32.888Z,988.83
2019-06-10T02:53:30.854Z,988.80
2019-06-10T02:54:31.424Z,988.89
2019-06-10T02:55:30.881Z,988.93
2019-06-10T02:56:30.753Z,988.97
2019-06-10T02:57:34.953Z,989.08
2019-06-10T02:58:34.164Z,989.07
2019-06-10T02:59:31.798Z,989.09
2019-06-10T03:00:39.721Z,989.04
2019-06-10T03:01:32.581Z,989.02
2019-06-10T03:02:31.509Z,989.01
2019-06-10T03:03:39.347Z,989.04
2019-06-10T03:04:32.525Z,989.07
2019-06-10T03:05:39.347Z,989.10
2019-06-10T03:06:34.867Z,989.14
2019-06-10T03:07:31.644Z,989.11
2019-06-10T03:08:31.746Z,989.08
2019-06-10T03:09:31.975Z,989.02
2019-06-10T03:10:32.824Z,988.98
2019-06-10T03:11:33.454Z,988.93
2019-06-10T03:12:29.642Z,988.89
2019-06-10T03:13:29.778Z,988.89
2019-06-10T03:14:29.929Z,988.93
2019-06-10T03:15:32.044Z,988.97
2019-06-10T03:16:32.760Z,988.96
2019-06-10T03:17:32.332Z,989.01
2019-06-10T03:18:32.715Z,989.02
2019-06-10T03:19:44.157Z,989.01
2019-06-10T03:20:32.030Z,988.98
2019-06-10T03:21:32.374Z,989.00
2019-06-10T03:22:32.739Z,989.01
2019-06-10T03:23:31.991Z,989.01
2019-06-10T03:24:32.800Z,988.99
2019-06-10T03:25:32.799Z,989.02
2019-06-10T03:26:32.298Z,989.06
2019-06-10T03:27:32.901Z,989.06
2019-06-10T03:28:32.212Z,989.03
2019-06-10T03:29:32.752Z,989.00
2019-06-10T03:30:47.233Z,988.98
2019-06-10T03:31:40.919Z,988.89
2019-06-10T03:32:40.368Z,988.88
2019-06-10T03:33:40.717Z,988.89
2019-06-10T03:34:41.285Z,988.83
2019-06-10T03:35:33.042Z,988.83
2019-06-10T03:36:32.844Z,988.78
2019-06-10T03:37:32.993Z,988.83
2019-06-10T03:38:33.111Z,988.78
2019-06-10T03:39:33.241Z,988.72
2019-06-10T03:40:33.374Z,988.71
2019-06-10T03:41:33.506Z,988.73
2019-06-10T03:42:33.643Z,988.68
2019-06-10T03:43:33.782Z,988.70
2019-06-10T03:44:33.907Z,988.63
2019-06-10T03:45:34.041Z,988.59
2019-06-10T03:46:34.170Z,988.58
2019-06-10T03:47:34.302Z,988.57
2019-06-10T03:48:34.441Z,988.59
2019-06-10T03:49:46.646Z,988.56
2019-06-10T03:50:34.704Z,988.57
2019-06-10T03:51:34.836Z,988.59
2019-06-10T03:52:34.963Z,988.60
2019-06-10T03:53:35.097Z,988.57
2019-06-10T03:54:35.241Z,988.56
2019-06-10T03:55:35.371Z,988.53
2019-06-10T03:56:35.500Z,988.54
2019-06-10T03:57:35.637Z,988.53
2019-06-10T03:58:35.769Z,988.50
2019-06-10T03:59:35.900Z,988.58
2019-06-10T04:00:37.065Z,988.57
2019-06-10T04:01:36.178Z,988.58
2019-06-10T04:02:36.308Z,988.59
2019-06-10T04:03:36.447Z,988.60
2019-06-10T04:04:36.576Z,988.62
2019-06-10T04:05:36.700Z,988.64
2019-06-10T04:06:36.882Z,988.66
2019-06-10T04:07:37.005Z,988.64
2019-06-10T04:08:37.137Z,988.71
2019-06-10T04:09:37.262Z,988.66
2019-06-10T04:10:37.410Z,988.64
2019-06-10T04:11:37.599Z,988.64
2019-06-10T04:12:37.722Z,988.64
2019-06-10T04:13:37.857Z,988.66
2019-06-10T04:14:37.987Z,988.62
2019-06-10T04:15:38.120Z,988.64
2019-06-10T04:16:38.261Z,988.68
2019-06-10T04:17:38.386Z,988.64
2019-06-10T04:18:38.521Z,988.62
2019-06-10T04:19:38.649Z,988.64
2019-06-10T04:20:38.786Z,988.63
2019-06-10T04:21:38.924Z,988.64
2019-06-10T04:22:39.066Z,988.60
2019-06-10T04:23:39.215Z,988.62
2019-06-10T04:24:39.350Z,988.61
2019-06-10T04:25:39.477Z,988.56
2019-06-10T04:26:39.604Z,988.54
2019-06-10T04:27:42.252Z,988.50
2019-06-10T04:28:39.878Z,988.54
2019-06-10T04:29:42.060Z,988.52
2019-06-10T04:30:40.141Z,988.50
2019-06-10T04:31:42.296Z,988.51
2019-06-10T04:32:42.780Z,988.54
2019-06-10T04:33:42.078Z,988.58
2019-06-10T04:34:42.743Z,988.53
2019-06-10T04:35:42.728Z,988.56
2019-06-10T04:36:42.317Z,988.55
2019-06-10T04:37:42.808Z,988.59
2019-06-10T04:38:43.260Z,988.57
2019-06-10T04:39:42.736Z,988.64
2019-06-10T04:40:43.082Z,988.65
2019-06-10T04:41:42.678Z,988.66
2019-06-10T04:42:43.607Z,988.67
2019-06-10T04:43:43.157Z,988.66
2019-06-10T04:44:42.360Z,988.62
2019-06-10T04:45:42.950Z,988.57
2019-06-10T04:46:42.900Z,988.59
2019-06-10T04:47:43.191Z,988.53
2019-06-10T04:48:42.874Z,988.56
2019-06-10T04:49:42.931Z,988.55
2019-06-10T04:50:46.310Z,988.49
2019-06-10T04:51:43.424Z,988.52
2019-06-10T04:52:43.278Z,988.51
2019-06-10T04:53:43.735Z,988.54
2019-06-10T04:54:43.379Z,988.57
2019-06-10T04:55:43.511Z,988.54
2019-06-10T04:56:43.660Z,988.51
2019-06-10T04:57:43.791Z,988.47
2019-06-10T04:58:43.932Z,988.45
2019-06-10T04:59:44.051Z,988.44
2019-06-10T05:00:44.186Z,988.45
2019-06-10T05:01:44.328Z,988.40
2019-06-10T05:02:44.453Z,988.37
2019-06-10T05:03:44.593Z,988.33
2019-06-10T05:04:44.721Z,988.31
2019-06-10T05:05:44.849Z,988.28
2019-06-10T05:06:44.979Z,988.31
2019-06-10T05:07:45.114Z,988.28
2019-06-10T05:08:45.249Z,988.31
2019-06-10T05:09:45.386Z,988.32
2019-06-10T05:10:45.515Z,988.29
2019-06-10T05:11:45.698Z,988.34
2019-06-10T05:12:45.810Z,988.31
2019-06-10T05:13:45.945Z,988.34
2019-06-10T05:14:46.075Z,988.40
2019-06-10T05:15:46.250Z,988.33
2019-06-10T05:16:46.367Z,988.30
2019-06-10T05:17:46.504Z,988.37
2019-06-10T05:18:46.636Z,988.29
2019-06-10T05:19:46.795Z,988.30
2019-06-10T05:20:57.728Z,988.29
2019-06-10T05:21:47.045Z,988.31
2019-06-10T05:22:47.181Z,988.30
2019-06-10T05:23:47.327Z,988.30
2019-06-10T05:24:47.482Z,988.27
2019-06-10T05:25:47.610Z,988.32
2019-06-10T05:26:47.737Z,988.31
2019-06-10T05:27:47.890Z,988.30
2019-06-10T05:28:48.021Z,988.24
2019-06-10T05:29:48.162Z,988.19
2019-06-10T05:30:48.304Z,988.16
2019-06-10T05:31:48.439Z,988.15
2019-06-10T05:32:48.570Z,988.13
2019-06-10T05:33:48.702Z,988.16
2019-06-10T05:34:48.834Z,988.13
2019-06-10T05:35:48.960Z,988.18
2019-06-10T05:36:49.098Z,988.21
2019-06-10T05:37:49.222Z,988.17
2019-06-10T05:38:49.355Z,988.19
2019-06-10T05:39:49.494Z,988.20
2019-06-10T05:40:51.988Z,988.20
2019-06-10T05:41:50.829Z,988.17
2019-06-10T05:42:49.897Z,988.22
2019-06-10T05:43:52.112Z,988.16
2019-06-10T05:44:52.288Z,988.20
2019-06-10T05:45:50.327Z,988.23
2019-06-10T05:46:52.657Z,988.24
2019-06-10T05:47:52.999Z,988.25
2019-06-10T05:48:52.658Z,988.29
2019-06-10T05:49:52.788Z,988.29
2019-06-10T05:51:00.189Z,988.34
2019-06-10T05:51:52.703Z,988.34
2019-06-10T05:52:52.033Z,988.35
2019-06-10T05:53:52.824Z,988.31
2019-06-10T05:54:52.102Z,988.33
2019-06-10T05:55:52.955Z,988.32
2019-06-10T05:56:52.199Z,988.31
2019-06-10T05:57:53.257Z,988.30
2019-06-10T05:58:52.589Z,988.27
2019-06-10T05:59:52.367Z,988.25
2019-06-10T06:00:53.152Z,988.27
2019-06-10T06:01:53.859Z,988.26
2019-06-10T06:02:52.612Z,988.29
2019-06-10T06:03:53.126Z,988.29
2019-06-10T06:04:53.143Z,988.30
2019-06-10T06:05:53.018Z,988.31
2019-06-10T06:06:53.307Z,988.31
2019-06-10T06:08:02.275Z,988.33
2019-06-10T06:08:53.570Z,988.32
2019-06-10T06:09:53.541Z,988.29
2019-06-10T06:10:53.675Z,988.29
2019-06-10T06:11:53.809Z,988.27
2019-06-10T06:12:53.936Z,988.28
2019-06-10T06:13:54.100Z,988.25
2019-06-10T06:14:54.225Z,988.26
2019-06-10T06:15:54.356Z,988.23
2019-06-10T06:16:54.491Z,988.26
2019-06-10T06:18:06.091Z,988.25
2019-06-10T06:18:54.801Z,988.26
2019-06-10T06:19:54.938Z,988.27
2019-06-10T06:20:55.066Z,988.27
2019-06-10T06:21:55.206Z,988.27
2019-06-10T06:22:55.330Z,988.31
2019-06-10T06:23:55.463Z,988.32
2019-06-10T06:24:55.591Z,988.33
2019-06-10T06:25:55.760Z,988.38
2019-06-10T06:26:55.874Z,988.38
2019-06-10T06:27:56.005Z,988.42
2019-06-10T06:28:56.148Z,988.35
2019-06-10T06:29:56.294Z,988.30
2019-06-10T06:30:56.420Z,988.32
2019-06-10T06:31:56.552Z,988.30
2019-06-10T06:32:56.677Z,988.33
2019-06-10T06:33:56.814Z,988.37
2019-06-10T06:34:56.949Z,988.40
2019-06-10T06:35:57.080Z,988.40
2019-06-10T06:36:57.216Z,988.42
2019-06-10T06:37:57.357Z,988.46
2019-06-10T06:38:57.478Z,988.45
2019-06-10T06:39:57.660Z,988.46
2019-06-10T06:40:57.766Z,988.46
2019-06-10T06:41:57.923Z,988.45
2019-06-10T06:42:58.037Z,988.40
2019-06-10T06:43:58.168Z,988.40
2019-06-10T06:44:58.299Z,988.42
2019-06-10T06:45:58.420Z,988.41
2019-06-10T06:46:58.571Z,988.45
2019-06-10T06:47:58.707Z,988.44
2019-06-10T06:48:58.834Z,988.40
2019-06-10T06:49:58.969Z,988.39
2019-06-10T06:51:04.359Z,988.41
2019-06-10T06:51:59.537Z,988.36
2019-06-10T06:53:19.365Z,988.36
2019-06-10T06:53:59.513Z,988.34
2019-06-10T06:54:59.649Z,988.36
2019-06-10T06:55:59.866Z,988.34
2019-06-10T06:57:03.230Z,988.32
2019-06-10T06:58:00.073Z,988.34
2019-06-10T06:59:02.378Z,988.27
2019-06-10T07:00:00.341Z,988.25
2019-06-10T07:01:09.762Z,988.30
2019-06-10T07:02:02.691Z,988.27
2019-06-10T07:03:03.008Z,988.26
2019-06-10T07:04:02.628Z,988.23
2019-06-10T07:05:03.191Z,988.21
2019-06-10T07:06:02.734Z,988.23
2019-06-10T07:07:02.633Z,988.23
2019-06-10T07:08:02.363Z,988.24
2019-06-10T07:09:07.752Z,988.23
2019-06-10T07:10:03.355Z,988.29
2019-06-10T07:11:02.846Z,988.30
2019-06-10T07:12:02.540Z,988.27
2019-06-10T07:13:02.825Z,988.31
2019-06-10T07:14:03.784Z,988.30
2019-06-10T07:15:04.327Z,988.25
2019-06-10T07:16:03.168Z,988.26
2019-06-10T07:17:03.953Z,988.26
2019-06-10T07:18:02.780Z,988.31
2019-06-10T07:19:02.922Z,988.31
2019-06-10T07:20:03.333Z,988.31
2019-06-10T07:21:03.386Z,988.34
2019-06-10T07:22:12.277Z,988.27
2019-06-10T07:23:03.472Z,988.29
2019-06-10T07:24:03.631Z,988.25
2019-06-10T07:25:06.522Z,988.25
2019-06-10T07:26:03.899Z,988.24
2019-06-10T07:27:04.025Z,988.28
2019-06-10T07:28:04.150Z,988.28
2019-06-10T07:29:04.273Z,988.22
2019-06-10T07:30:11.419Z,988.25
2019-06-10T07:31:19.488Z,988.22
2019-06-10T07:32:04.716Z,988.19
2019-06-10T07:33:04.845Z,988.13
2019-06-10T07:34:04.978Z,988.13
2019-06-10T07:35:05.104Z,988.10
2019-06-10T07:36:05.275Z,988.09
2019-06-10T07:37:05.408Z,988.06
2019-06-10T07:38:05.540Z,988.03
2019-06-10T07:39:05.675Z,988.06
2019-06-10T07:40:05.816Z,988.08
2019-06-10T07:41:05.947Z,988.13
2019-06-10T07:42:06.086Z,988.12
2019-06-10T07:43:06.245Z,988.14
2019-06-10T07:44:06.391Z,988.17
2019-06-10T07:45:07.107Z,988.19
2019-06-10T07:46:06.682Z,988.21
2019-06-10T07:47:06.800Z,988.22
2019-06-10T07:48:06.941Z,988.23
2019-06-10T07:49:07.087Z,988.19
2019-06-10T07:50:07.212Z,988.21
2019-06-10T07:51:07.346Z,988.21
2019-06-10T07:52:15.601Z,988.24
2019-06-10T07:53:07.612Z,988.22
2019-06-10T07:54:07.747Z,988.22
2019-06-10T07:55:07.875Z,988.21
2019-06-10T07:56:08.014Z,988.21
2019-06-10T07:57:08.138Z,988.22
2019-06-10T07:58:08.278Z,988.20
2019-06-10T07:59:08.423Z,988.18
2019-06-10T08:00:08.557Z,988.15
2019-06-10T08:01:08.695Z,988.12
2019-06-10T08:02:08.847Z,988.16
2019-06-10T08:03:08.979Z,988.16
2019-06-10T08:04:09.108Z,988.16
2019-06-10T08:05:09.265Z,988.16
2019-06-10T08:06:09.411Z,988.14
2019-06-10T08:07:09.544Z,988.12
2019-06-10T08:08:09.729Z,988.07
2019-06-10T08:09:09.838Z,988.09
2019-06-10T08:10:09.984Z,988.08
2019-06-10T08:11:10.143Z,988.05
2019-06-10T08:12:12.597Z,988.09
2019-06-10T08:13:12.025Z,988.09
2019-06-10T08:14:12.826Z,988.09
2019-06-10T08:15:12.475Z,988.12
2019-06-10T08:16:13.011Z,988.13
2019-06-10T08:17:12.931Z,988.13
2019-06-10T08:18:13.138Z,988.17
2019-06-10T08:19:26.302Z,988.21
2019-06-10T08:20:13.317Z,988.18
2019-06-10T08:21:12.264Z,988.13
2019-06-10T08:22:13.159Z,988.01
2019-06-10T08:23:12.619Z,988.00
2019-06-10T08:24:12.667Z,987.99
2019-06-10T08:25:12.451Z,987.91
2019-06-10T08:26:12.850Z,987.93
2019-06-10T08:27:12.338Z,987.89
2019-06-10T08:28:13.419Z,987.91
2019-06-10T08:29:12.747Z,987.86
2019-06-10T08:30:21.763Z,987.79
2019-06-10T08:31:12.873Z,987.81
2019-06-10T08:32:13.288Z,987.80
2019-06-10T08:33:13.757Z,987.79
2019-06-10T08:34:13.550Z,987.84
2019-06-10T08:35:13.441Z,987.83
2019-06-10T08:36:13.830Z,987.85
2019-06-10T08:37:13.805Z,987.81
2019-06-10T08:38:13.847Z,987.83
2019-06-10T08:39:16.014Z,987.89
2019-06-10T08:40:14.135Z,987.87
2019-06-10T08:41:14.262Z,987.87
2019-06-10T08:42:14.399Z,987.92
2019-06-10T08:43:14.536Z,987.86
2019-06-10T08:44:14.666Z,987.88
2019-06-10T08:45:14.863Z,987.88
2019-06-10T08:46:14.978Z,987.89
2019-06-10T08:47:15.104Z,987.92
2019-06-10T08:48:15.246Z,987.89
2019-06-10T08:49:15.404Z,987.88
2019-06-10T08:50:15.540Z,987.89
2019-06-10T08:51:15.661Z,987.89
2019-06-10T08:52:15.795Z,987.91
2019-06-10T08:53:18.138Z,987.89
2019-06-10T08:54:16.086Z,987.94
2019-06-10T08:55:16.225Z,987.91
2019-06-10T08:56:16.363Z,987.87
2019-06-10T08:57:16.494Z,987.83
2019-06-10T08:58:16.622Z,987.81
2019-06-10T08:59:16.758Z,987.80
2019-06-10T09:00:18.716Z,987.79
2019-06-10T09:01:17.035Z,987.69
2019-06-10T09:02:17.161Z,987.77
2019-06-10T09:03:17.304Z,987.74
2019-06-10T09:04:17.433Z,987.79
2019-06-10T09:05:17.589Z,987.77
2019-06-10T09:06:17.719Z,987.81
2019-06-10T09:07:17.862Z,987.81
2019-06-10T09:08:17.997Z,987.77
2019-06-10T09:09:18.141Z,987.81
2019-06-10T09:10:18.269Z,987.77
2019-06-10T09:11:20.559Z,987.79
2019-06-10T09:12:32.212Z,987.78
2019-06-10T09:13:18.675Z,987.77
2019-06-10T09:14:18.813Z,987.76
2019-06-10T09:15:18.936Z,987.71
2019-06-10T09:16:19.581Z,987.69
2019-06-10T09:17:19.226Z,987.62
2019-06-10T09:18:20.045Z,987.57
2019-06-10T09:19:19.490Z,987.57
2019-06-10T09:20:19.633Z,987.60
2019-06-10T09:21:22.144Z,987.66
2019-06-10T09:22:19.894Z,987.61
2019-06-10T09:23:23.181Z,987.73
2019-06-10T09:24:22.254Z,987.67
2019-06-10T09:25:22.631Z,987.64
2019-06-10T09:26:22.923Z,987.61
2019-06-10T09:27:26.050Z,987.61
2019-06-10T09:28:22.956Z,987.65
2019-06-10T09:29:22.304Z,987.60
2019-06-10T09:30:22.705Z,987.58
2019-06-10T09:31:23.293Z,987.58
2019-06-10T09:32:23.042Z,987.57
2019-06-10T09:33:22.560Z,987.56
2019-06-10T09:34:23.752Z,987.56
2019-06-10T09:35:24.041Z,987.50
2019-06-10T09:36:23.537Z,987.48
2019-06-10T09:37:23.314Z,987.51
2019-06-10T09:38:22.385Z,987.48
2019-06-10T09:39:23.022Z,987.51
2019-06-10T09:40:22.920Z,987.50
2019-06-10T09:41:36.051Z,987.44
2019-06-10T09:42:23.843Z,987.43
2019-06-10T09:43:22.794Z,987.39
2019-06-10T09:44:23.004Z,987.36
2019-06-10T09:45:22.985Z,987.39
2019-06-10T09:46:23.329Z,987.40
2019-06-10T09:47:23.260Z,987.40
2019-06-10T09:48:23.669Z,987.44
2019-06-10T09:49:23.561Z,987.47
2019-06-10T09:50:23.687Z,987.49
2019-06-10T09:51:23.829Z,987.48
2019-06-10T09:52:24.129Z,987.43
2019-06-10T09:53:33.807Z,987.37
2019-06-10T09:54:24.233Z,987.40
2019-06-10T09:55:24.388Z,987.38
2019-06-10T09:56:24.526Z,987.37
2019-06-10T09:57:24.675Z,987.32
2019-06-10T09:58:24.812Z,987.36
2019-06-10T09:59:24.953Z,987.41
2019-06-10T10:00:25.081Z,987.46
2019-06-10T10:01:25.217Z,987.43
2019-06-10T10:02:25.362Z,987.50
2019-06-10T10:03:25.484Z,987.47
2019-06-10T10:04:25.616Z,987.39
2019-06-10T10:05:25.744Z,987.40
2019-06-10T10:06:25.892Z,987.49
2019-06-10T10:07:26.032Z,987.46
2019-06-10T10:08:26.162Z,987.41
2019-06-10T10:09:26.302Z,987.38
2019-06-10T10:10:26.445Z,987.31
2019-06-10T10:11:28.607Z,987.28
2019-06-10T10:12:26.710Z,987.30
2019-06-10T10:13:26.874Z,987.29
2019-06-10T10:14:27.009Z,987.30
2019-06-10T10:15:30.632Z,987.40
2019-06-10T10:16:27.272Z,987.36
2019-06-10T10:17:27.512Z,987.39
2019-06-10T10:18:27.526Z,987.37
2019-06-10T10:19:27.657Z,987.37
2019-06-10T10:20:27.804Z,987.38
2019-06-10T10:21:27.980Z,987.36
2019-06-10T10:22:28.106Z,987.39
2019-06-10T10:23:28.264Z,987.43
2019-06-10T10:24:28.395Z,987.37
2019-06-10T10:25:28.523Z,987.35
2019-06-10T10:26:28.661Z,987.30
2019-06-10T10:27:28.789Z,987.34
2019-06-10T10:28:29.009Z,987.33
2019-06-10T10:29:29.080Z,987.39
2019-06-10T10:30:29.224Z,987.29
2019-06-10T10:31:29.368Z,987.27
2019-06-10T10:32:29.498Z,987.27
2019-06-10T10:33:32.620Z,987.32
2019-06-10T10:34:29.771Z,987.27
2019-06-10T10:35:32.508Z,987.29
2019-06-10T10:36:30.062Z,987.23
2019-06-10T10:37:32.734Z,987.17
2019-06-10T10:38:30.342Z,987.16
2019-06-10T10:39:32.559Z,987.19
2019-06-10T10:40:32.625Z,987.18
2019-06-10T10:41:32.305Z,987.22
2019-06-10T10:42:42.680Z,987.15
2019-06-10T10:43:33.990Z,987.16
2019-06-10T10:44:31.174Z,987.18
2019-06-10T10:45:32.179Z,987.12
2019-06-10T10:46:32.594Z,987.17
2019-06-10T10:47:33.500Z,987.14
2019-06-10T10:48:33.550Z,987.16
2019-06-10T10:49:32.613Z,987.15
2019-06-10T10:50:34.171Z,987.15
2019-06-10T10:51:32.665Z,987.15
2019-06-10T10:52:33.096Z,987.13
2019-06-10T10:53:32.944Z,987.14
2019-06-10T10:54:36.467Z,987.10
2019-06-10T10:55:33.420Z,987.13
2019-06-10T10:56:33.940Z,987.10
2019-06-10T10:57:33.112Z,987.12
2019-06-10T10:58:33.452Z,987.06
2019-06-10T10:59:33.391Z,987.08
2019-06-10T11:00:37.416Z,987.00
2019-06-10T11:01:33.564Z,986.99
2019-06-10T11:02:33.739Z,987.00
2019-06-10T11:03:33.946Z,987.00
2019-06-10T11:04:34.006Z,986.98
2019-06-10T11:05:34.154Z,986.95
2019-06-10T11:06:34.332Z,986.95
2019-06-10T11:07:34.419Z,986.92
2019-06-10T11:08:34.562Z,986.90
2019-06-10T11:09:34.705Z,986.93
2019-06-10T11:10:34.852Z,986.85
2019-06-10T11:11:34.992Z,986.82
2019-06-10T11:12:35.147Z,986.79
2019-06-10T11:13:35.285Z,986.77
2019-06-10T11:14:35.417Z,986.72
2019-06-10T11:15:35.556Z,986.70
2019-06-10T11:16:35.691Z,986.67
2019-06-10T11:17:35.819Z,986.62
2019-06-10T11:18:36.092Z,986.57
2019-06-10T11:19:36.097Z,986.54
2019-06-10T11:20:36.243Z,986.56
2019-06-10T11:21:36.363Z,986.56
2019-06-10T11:22:36.503Z,986.55
2019-06-10T11:23:36.648Z,986.51
2019-06-10T11:24:41.139Z,986.52
2019-06-10T11:25:36.941Z,986.45
2019-06-10T11:26:37.091Z,986.43
2019-06-10T11:27:37.216Z,986.41
2019-06-10T11:28:37.367Z,986.40
2019-06-10T11:29:37.616Z,986.41
2019-06-10T11:30:37.667Z,986.40
2019-06-10T11:31:37.780Z,986.38
2019-06-10T11:32:38.110Z,986.45
2019-06-10T11:33:38.056Z,986.40
2019-06-10T11:34:38.190Z,986.40
2019-06-10T11:35:38.333Z,986.41
2019-06-10T11:36:38.605Z,986.38
2019-06-10T11:37:38.611Z,986.36
2019-06-10T11:38:38.752Z,986.32
2019-06-10T11:39:38.904Z,986.25
2019-06-10T11:40:39.044Z,986.28
2019-06-10T11:41:39.199Z,986.23
2019-06-10T11:42:39.306Z,986.13
2019-06-10T11:43:39.439Z,986.07
2019-06-10T11:44:39.601Z,986.06
2019-06-10T11:45:47.418Z,986.06
2019-06-10T11:46:39.888Z,986.05
2019-06-10T11:47:42.466Z,985.95
2019-06-10T11:48:40.198Z,985.95
2019-06-10T11:49:43.268Z,985.89
2019-06-10T11:50:42.837Z,985.87
2019-06-10T11:51:40.608Z,985.88
2019-06-10T11:52:43.176Z,985.85
2019-06-10T11:53:43.712Z,985.86
2019-06-10T11:54:53.761Z,985.92
2019-06-10T11:55:42.345Z,985.91
2019-06-10T11:56:42.194Z,985.90
2019-06-10T11:57:42.443Z,985.96
2019-06-10T11:58:42.700Z,985.96
2019-06-10T11:59:43.479Z,985.94
2019-06-10T12:00:42.663Z,985.93
2019-06-10T12:01:42.668Z,985.94
2019-06-10T12:02:42.465Z,985.93
2019-06-10T12:03:43.198Z,985.97
2019-06-10T12:04:42.480Z,986.02
2019-06-10T12:05:42.626Z,985.99
2019-06-10T12:06:42.805Z,986.05
2019-06-10T12:07:43.539Z,986.04
2019-06-10T12:08:43.772Z,986.05
2019-06-10T12:09:43.178Z,986.09
2019-06-10T12:10:43.516Z,986.10
2019-06-10T12:11:43.995Z,986.08
2019-06-10T12:12:43.583Z,986.08
2019-06-10T12:13:43.721Z,986.03
2019-06-10T12:14:43.883Z,985.97
2019-06-10T12:16:30.459Z,985.91
2019-06-10T12:17:17.565Z,985.88
2019-06-10T12:17:51.082Z,985.85
2019-06-10T12:18:44.442Z,985.89
2019-06-10T12:19:44.592Z,985.84
2019-06-10T12:20:44.730Z,985.80
2019-06-10T12:21:44.868Z,985.74
2019-06-10T12:22:45.008Z,985.75
2019-06-10T12:23:45.168Z,985.73
2019-06-10T12:24:45.291Z,985.72
2019-06-10T12:25:47.896Z,985.69
2019-06-10T12:26:45.574Z,985.70
2019-06-10T12:27:45.711Z,985.74
2019-06-10T12:28:45.870Z,985.76
2019-06-10T12:29:46.014Z,985.76